• Join FlightAware (Why Join?)
  • Login
  • US Flag 
06:54PM EST


 

Airport Tracker/Info


-or-


 

Live Flight TrackerFlight Track Log ✈ AAL2007 ✈ 21-Apr-2013 ✈ KORD - KAUS

Flight Track Log - Related Links

Times and Time Zones

All times are in EDT time to prevent confusion due to time zone crossing. See the AAL2007 flight status page for this flight to view local times or setup timezone preferences in your user account.

Time Position Orientation Groundspeed Altitude Reporting Facility
EDT Latitude Longitude Course Direction KTS MPH feet Rate Location/Type
06:13PM 41.9500 -87.9000 207° Southwest 164 189 1,700  Level Chicago TRACON
06:14PM 41.9000 -87.9333 206° Southwest 211 243 3,700 1,920 Climbing Chicago TRACON
06:14PM 41.8736 -87.9403 191° South 215 247 4,400 2,700 Climbing Chicago Center
06:15PM 41.7158 -88.1728 201° Southwest  Level Estimated
06:15PM 41.8072 -87.9778 203° Southwest 247 284 7,600  Level Chicago Center
06:16PM 41.6270 -88.2610 197° South  Level Estimated
06:16PM 41.7369 -88.0181 203° Southwest 273 314 10,700  Level Chicago Center
06:17PM 41.5255 -88.2027 157° South  Level FlightAware Approximate
06:17PM 41.6644 -88.0550 201° Southwest 279 321 13,800  Level Chicago Center
06:18PM 41.4372 -88.2915 207° Southwest  Level Estimated
06:18PM 41.5706 -88.1003 200° South 300 345 16,300  Level Chicago Center
06:19PM 41.4889 -88.1386 199° South 315 362 18,500 1,920 Climbing Chicago Center
06:20PM 41.4033 -88.1822 201° Southwest 347 399 20,300 1,800 Climbing Chicago Center
06:21PM 41.3131 -88.2222 198° South 351 404 22,300 1,920 Climbing Chicago Center
06:22PM 41.1978 -88.2778 200° South 371 427 24,300 1,500 Climbing Chicago Center
06:23PM 41.0961 -88.3208 198° South 384 442 25,400 1,200 Climbing Chicago Center
06:24PM 40.9892 -88.3697 199° South 403 464 26,900 1,140 Climbing Chicago Center
06:25PM 40.8792 -88.4203 199° South 416 479 27,800 1,080 Climbing Chicago Center
06:26PM 40.7728 -88.4919 207° Southwest 454 522 29,200 1,560 Climbing Chicago Center
06:27PM 40.6725 -88.6153 223° Southwest 415 478 31,100 1,320 Climbing Chicago Center
06:28PM 40.5825 -88.7075 218° Southwest 411 473 32,000 480 Climbing Chicago Center
06:29PM 40.4919 -88.8025 219° Southwest 416 479 32,100 480 Climbing Chicago Center
06:30PM 40.3989 -88.9033 220° Southwest 412 474 33,100 840 Climbing Chicago Center
06:31PM 40.3078 -88.9972 218° Southwest 413 475 33,900 420 Climbing Chicago Center
06:33PM 40.2186 -89.0914 219° Southwest 410 472 34,000  Climbing Chicago Center
06:34PM 40.1278 -89.1869 219° Southwest 415 478 34,000  Level Chicago Center
06:35PM 40.0386 -89.2808 219° Southwest 411 473 34,000  Level Chicago Center
06:36PM 39.9464 -89.3744 218° Southwest 413 475 34,000  Level Kansas City Center
06:37PM 39.8558 -89.4694 219° Southwest 415 478 34,000  Level Kansas City Center
06:38PM 39.7650 -89.5636 219° Southwest 416 479 34,000  Level Kansas City Center
06:39PM 39.6781 -89.6531 218° Southwest 413 475 34,000  Level Kansas City Center
06:40PM 39.5697 -89.7631 218° Southwest 413 475 34,000  Level Kansas City Center
06:41PM 39.4808 -89.8547 219° Southwest 410 472 34,000  Level Kansas City Center
06:42PM 39.3900 -89.9461 218° Southwest 412 474 34,000  Level Kansas City Center
06:43PM 39.2806 -90.0581 218° Southwest 417 480 34,000  Level Kansas City Center
06:44PM 39.1908 -90.1500 218° Southwest 415 478 34,000  Level Kansas City Center
06:45PM 39.1000 -90.2425 218° Southwest 416 479 34,000  Level Kansas City Center
06:46PM 38.9908 -90.3522 218° Southwest 417 480 34,000  Level Kansas City Center
06:47PM 38.9114 -90.4325 218° Southwest 414 476 34,000  Level Kansas City Center
06:48PM 38.8028 -90.5458 219° Southwest 415 478 34,000  Level Kansas City Center
06:49PM 38.7167 -90.6478 223° Southwest 417 480 34,000  Level Kansas City Center
06:50PM 38.6208 -90.7433 218° Southwest 417 480 34,000  Level Kansas City Center
06:51PM 38.5289 -90.8353 218° Southwest 423 487 34,000  Level Kansas City Center
06:52PM 38.4369 -90.9258 218° Southwest 419 482 34,000  Level Kansas City Center
06:53PM 38.3450 -91.0181 218° Southwest 423 487 34,000  Level Kansas City Center
06:54PM 38.2522 -91.1108 218° Southwest 424 488 34,000  Level Kansas City Center
06:55PM 38.1392 -91.2175 217° Southwest 421 484 34,000  Level Kansas City Center
06:56PM 38.0503 -91.3097 219° Southwest 417 480 34,000  Level Kansas City Center
06:57PM 37.9556 -91.4014 217° Southwest 418 481 34,000  Level Kansas City Center
06:58PM 37.8614 -91.4933 218° Southwest 423 487 34,000  Level Kansas City Center
06:59PM 37.7683 -91.5833 217° Southwest 421 484 34,000  Level Kansas City Center
07:01PM 37.6761 -91.6736 218° Southwest 417 480 34,000  Level Kansas City Center
07:02PM 37.5836 -91.7639 218° Southwest 417 480 34,000  Level Kansas City Center
07:03PM 37.4917 -91.8533 218° Southwest 415 478 34,000  Level Kansas City Center
07:04PM 37.3803 -91.9600 217° Southwest 416 479 34,000  Level Kansas City Center
07:05PM 37.2867 -92.0508 218° Southwest 420 483 34,000  Level Kansas City Center
07:06PM 37.1942 -92.1406 218° Southwest 419 482 34,000  Level Kansas City Center
07:07PM 37.0986 -92.2297 217° Southwest 421 484 34,000  Level Kansas City Center
07:08PM 37.0028 -92.3233 218° Southwest 429 494 34,000  Level Kansas City Center
07:09PM 36.9094 -92.4139 218° Southwest 426 490 34,000  Level Kansas City Center
07:09PM 36.8517 -92.4675 217° Southwest 437 503 34,000  Level Memphis Center
07:10PM 36.7583 -92.5531 216° Southwest 437 503 34,000  Level Memphis Center
07:11PM 36.6653 -92.6383 216° Southwest 432 497 34,000  Level Memphis Center
07:12PM 36.5739 -92.7264 218° Southwest 432 497 34,000  Level Memphis Center
07:13PM 36.4806 -92.8139 217° Southwest 427 491 34,000  Level Memphis Center
07:14PM 36.3850 -92.8986 216° Southwest 427 491 34,000  Level Memphis Center
07:15PM 36.2936 -92.9861 218° Southwest 427 491 34,000  Level Memphis Center
07:16PM 36.2022 -93.0731 218° Southwest 427 491 34,000  Level Memphis Center
07:17PM 36.1086 -93.1572 216° Southwest 422 486 34,000  Level Memphis Center
07:18PM 36.0150 -93.2389 215° Southwest 422 486 34,000  Level Memphis Center
07:19PM 35.9233 -93.3253 217° Southwest 422 486 34,000  Level Memphis Center
07:20PM 35.8314 -93.4092 216° Southwest 422 486 34,000  Level Memphis Center
07:21PM 35.7397 -93.4900 216° Southwest 417 480 34,000  Level Memphis Center
07:22PM 35.6567 -93.5661 217° Southwest 417 480 34,000  Level Memphis Center
07:23PM 35.5667 -93.6494 217° Southwest 417 480 34,000  Level Memphis Center
07:24PM 35.4769 -93.7300 216° Southwest 417 480 34,000  Level Memphis Center
07:25PM 35.3850 -93.8131 216° Southwest 417 480 34,000  Level Memphis Center
07:26PM 35.2953 -93.8931 216° Southwest 417 480 34,000  Level Memphis Center
07:28PM 35.1092 -94.0586 216° Southwest 417 480 34,000  Level Fort Worth Center
07:29PM 35.0194 -94.1381 216° Southwest 412 474 34,000  Level Fort Worth Center
07:30PM 34.9319 -94.2225 218° Southwest 406 467 34,000  Level Fort Worth Center
07:31PM 34.8442 -94.2992 216° Southwest 396 456 34,000  Level Fort Worth Center
07:32PM 34.7564 -94.3756 216° Southwest 396 456 34,000  Level Fort Worth Center
07:33PM 34.6664 -94.4519 215° Southwest 401 461 34,000  Level Fort Worth Center
07:34PM 34.5786 -94.5333 217° Southwest 401 461 34,000  Level Fort Worth Center
07:35PM 34.4906 -94.6092 215° Southwest 401 461 34,000  Level Fort Worth Center
07:36PM 34.4003 -94.6853 215° Southwest 401 461 34,000  Level Fort Worth Center
07:37PM 34.3103 -94.7661 217° Southwest 401 461 34,000  Level Fort Worth Center
07:38PM 34.2222 -94.8414 215° Southwest 401 461 34,000  Level Fort Worth Center
07:39PM 34.1319 -94.9194 216° Southwest 401 461 34,000  Level Fort Worth Center
07:40PM 34.0417 -94.9972 216° Southwest 401 461 34,000  Level Fort Worth Center
07:41PM 33.9533 -95.0722 215° Southwest 401 461 34,000  Level Fort Worth Center
07:42PM 33.8628 -95.1472 215° Southwest 401 461 34,000  Level Fort Worth Center
07:43PM 33.7744 -95.2244 216° Southwest 401 461 34,000  Level Fort Worth Center
07:44PM 33.6861 -95.3042 217° Southwest 401 461 34,000  Level Fort Worth Center
07:45PM 33.5975 -95.3761 214° Southwest 401 461 34,000  Level Fort Worth Center
07:46PM 33.5069 -95.4553 216° Southwest 401 461 34,000  Level Fort Worth Center
07:47PM 33.4142 -95.5297 214° Southwest 406 467 34,000  Level Fort Worth Center
07:48PM 33.3358 -95.5983 216° Southwest 406 467 34,000  Level Fort Worth Center
07:49PM 33.2453 -95.6747 215° Southwest 399 459 34,000  Level Fort Worth Center
07:50PM 33.1522 -95.7511 215° Southwest 404 465 34,000  Level Fort Worth Center
07:51PM 33.0592 -95.8269 214° Southwest 404 465 34,000  Level Fort Worth Center
07:52PM 32.9622 -95.9106 216° Southwest 404 465 34,000  Level Fort Worth Center
07:53PM 32.8692 -95.9864 214° Southwest 404 465 34,000  Level Fort Worth Center
07:54PM 32.7781 -96.0644 216° Southwest 404 465 34,000  Level Fort Worth Center
07:55PM 32.6872 -96.1397 215° Southwest 404 465 34,000  Level Fort Worth Center
07:56PM 32.5939 -96.2175 215° Southwest 409 471 34,000 -600 Level Fort Worth Center
07:57PM 32.5028 -96.2900 214° Southwest 409 471 32,900 -1,560 Descending Fort Worth Center
07:58PM 32.4072 -96.3675 214° Southwest 416 479 30,900 -1,860 Descending Fort Worth Center
07:59PM 32.3222 -96.4375 215° Southwest 423 487 29,200 -1,860 Descending Fort Worth Center
08:00PM 32.2186 -96.5147 212° Southwest 429 494 27,200 -2,040 Descending Fort Worth Center
08:01PM 32.1147 -96.5867 210° Southwest 437 503 25,200 -1,620 Descending Fort Worth Center
08:02PM 32.0147 -96.6539 210° Southwest 434 499 24,000 -660 Descending Fort Worth Center
08:03PM 31.9192 -96.7231 212° Southwest 420 483 23,900 -780 Descending Fort Worth Center
08:04PM 31.8214 -96.7900 210° Southwest 407 468 22,500 -1,560 Descending Fort Worth Center
08:05PM 31.7278 -96.8564 211° Southwest 399 459 20,800 -1,260 Descending Fort Worth Center
08:06PM 31.6300 -96.9206 209° Southwest 399 459 20,000 -420 Descending Fort Worth Center
08:07PM 31.5181 -96.9981 211° Southwest 393 452 20,000 -900 Level Houston Center
08:08PM 31.4192 -97.0644 210° Southwest 403 464 18,100 -1,860 Descending Houston Center
08:09PM 31.3231 -97.1308 211° Southwest 400 460 16,300 -1,080 Descending Houston Center
08:10PM 31.2297 -97.1947 210° Southwest 388 447 16,000 -180 Descending Houston Center
08:12PM 31.1103 -97.2472 201° Southwest 394 453 16,000  Level Houston Center
08:13PM 31.0075 -97.2878 199° South 390 449 16,000 -1,140 Level Houston Center
08:14PM 30.9078 -97.3264 198° South 393 452 13,700 -2,160 Descending Houston Center
08:15PM 30.8111 -97.3650 199° South 373 429 11,600 -1,560 Descending Houston Center
08:16PM 30.7333 -97.4186 211° Southwest 328 377 10,500 -1,140 Descending Houston Center
08:17PM 30.6536 -97.4747 211° Southwest 295 339 9,300 -1,440 Descending Houston Center
08:18PM 30.5919 -97.5181 211° Southwest 264 304 7,600 -1,620 Descending Houston Center
08:19PM 30.5283 -97.5617 211° Southwest 263 303 6,000 -1,740 Descending Houston Center
08:20PM 30.4675 -97.6039 211° Southwest 254 292 4,100 -1,200 Descending Houston Center
08:21PM 30.4061 -97.6375 205° Southwest 244 281 3,600 -300 Descending Houston Center
08:22PM 30.3522 -97.6631 202° Southwest 215 247 3,500 -120 Descending Houston Center